Jacksonville, FL (32099)

5:00 PM EST on December 27, 2014 (GMT -0500)
Normandy Heights 32205 | Change Station
CLOSE
Current Station
Personal Weather Station
Location: Jacksonville, FL
Elevation: 20 ft
Nearby Weather Stations

Elev 20 ft 30.30 °N, 81.76 °W | Updated 2 seconds ago

Partly Cloudy
Partly Cloudy
69.8 °F
Feels Like 69.8 °F
N
2.7
Wind Variable Wind from East
Gusts 4.9 mph

Today
High -- | Low -- °F
--% Chance of Precip.
Yesterday
High -- | Low -- °F
Precip. -- in
7:22 AM 5:34 PM
Waxing Crescent, 40% visible
Pressure 30.18 in
Visibility 10.0 miles
Clouds Few 3500 ft
Scattered Clouds 25000 ft
Dew Point 62 °F
Humidity 77%
Rainfall 0.00 in
Snow Depth Not available.
UV 0 out of 12
Pollen 2.40 out of 12
Air Quality Not available.
Flu Activity Not available.
METAR KNIP 272153Z 08008KT 10SM FEW035 SCT250 23/16 A3019 RMK AO2 SLP220 T02280156

More Conditions Fewer Conditions

Pressure 30.18 in
Visibility 10.0 miles
Clouds Few 3500 ft
Scattered Clouds 25000 ft
Dew Point 62 °F
Humidity 77%
Rainfall 0.00 in
Snow Depth Not available.
UV 0 out of 12
Pollen 2.40 out of 12
Air Quality Not available.
Flu Activity Not available.
METAR KNIP 272153Z 08008KT 10SM FEW035 SCT250 23/16 A3019 RMK AO2 SLP220 T02280156

More Conditions Fewer Conditions

10-Day Weather Forecast

Almanac

Astronomy

Dec. 27, 2014 Rise Set
Actual Time
Civil Twilight
Nautical Twilight
Astronomical Twilight
Moon
Length of Visible Light
Length of Day
Tomorrow will be .
, % of the Moon is Illuminated

Today's Extremes

State Highs State Lows

Community

WunderPhotos

Upload Photos

1,781,073 photos uploaded!

WunderBlogs® & News

Nearby

Air Quality

  Air Quality AQ Index Pollutant
Not available.

Snow Depth

Station Depth Elevation

Earthquake Activity

City Distance Mag. Time & Date
Minimum magnitude displayed is 2.5.

Coastal Water Temperatures

Place Temperature

Nearby Weather Stations